Terminal Aerodrome Forecast
Issued by NWS

Current Version | Previous Version | Text Only | Print | Product List | Glossary On
Versions: 1 2 3 4 5 6 7 8 9 10 11 12 13 14 15 16
000
FTUS46 KSGX 290907 AAA
TAFSNA
TAF AMD
KSNA 290907Z 2909/3006 05015G25KT P6SM FEW250
     FM292100 05011KT P6SM SKC
     FM292300 27008KT P6SM SKC
     FM300200 VRB04KT P6SM SKC=

USA.gov is the U.S. government's official web portal to all federal, state and local government web resources and services.